PDD weather

Ponta do Ouro Airport
Ponta do Ouro, Maputo Province, Mozambique

Public forecast

Using degrees Celsius for public forecast. Weather courtesy of forecast.io.

Closest aviation weather report (METAR) to Ponta do Ouro Airport

Report is more than 6 hours old.

Closest report is Nsoko Airport, 49.9 nm (92.5 km) WSW. Retrieved 2010/04/20 09:00 UTC (10 years ago):

FDNS 200900Z 00000KT 9999 BKN040 22/17 Q1017 NOSIG

Closest aviation forecast (TAF) to Ponta do Ouro Airport

Closest forecast is Maputo Airport, 56.3 nm (104.3 km) NNW. Retrieved 2020/08/06 12:00 UTC (4 hours ago):

TAF FQMA 061000Z 0612/0718 34010KT 9999 FEW025 TX29/0613Z TN16/0703Z BECMG 0618/0620 17010G20KT BKN020 BECMG 0700/0702 17015G25KT BECMG 0713/0715 15015KT FEW025